HAZ270C ZSHC-ZJQH
Flight info
| Callsign | HAZ270C |
|---|---|
| Flight time | 2h 37m |
| Altitude | 34100 |
| Route | ELN92D ELNEX A599 PLT W19 NOMAR W18 NLG W23 ZUH R200 BIGRO G221 ANPIM ANPIM9ZA |
| Aircraft | A20N/M-SDE2E3FGHIRWXY/LB1 |
Departure
| Time | 2026-05-05 13:20 |
|---|---|
| Airport | Hangzhou Xiaoshan International Airport (ZSHC) |
Arrival
| Time | 2026-05-05 15:57 |
|---|---|
| Airport | Qionghai Bo'ao Airport (ZJQH) |
| Time | Latitude | Longitude | Altitude | Speed | Heading |
|---|---|---|---|---|---|
| 2026-05-05 12:57 | 30.24003 | 120.42493 | 38 ft | 0 kts | 219° |
| 2026-05-05 13:04 | 30.24004 | 120.42494 | 38 ft | 1 kts | 220° |
| 2026-05-05 13:04 | 30.24016 | 120.42504 | 38 ft | 2 kts | 218° |
| 2026-05-05 13:04 | 30.24018 | 120.42506 | 38 ft | 0 kts | 219° |
| 2026-05-05 13:04 | 30.24003 | 120.42493 | 38 ft | 0 kts | 219° |
| 2026-05-05 13:11 | 30.24014 | 120.42503 | 38 ft | 2 kts | 217° |
| 2026-05-05 13:11 | 30.24026 | 120.42513 | 38 ft | 2 kts | 218° |
| 2026-05-05 13:11 | 30.24035 | 120.42527 | 38 ft | 2 kts | 257° |
| 2026-05-05 13:11 | 30.24034 | 120.42545 | 38 ft | 2 kts | 292° |
| 2026-05-05 13:12 | 30.24026 | 120.42557 | 38 ft | 0 kts | 324° |
| 2026-05-05 13:12 | 30.24021 | 120.42561 | 38 ft | 1 kts | 333° |
| 2026-05-05 13:12 | 30.24019 | 120.42562 | 38 ft | 0 kts | 330° |
| 2026-05-05 13:14 | 30.24030 | 120.42555 | 38 ft | 5 kts | 328° |
| 2026-05-05 13:14 | 30.24076 | 120.42522 | 38 ft | 8 kts | 333° |
| 2026-05-05 13:14 | 30.24135 | 120.42492 | 38 ft | 9 kts | 340° |
| 2026-05-05 13:15 | 30.24204 | 120.42471 | 38 ft | 10 kts | 340° |
| 2026-05-05 13:15 | 30.24270 | 120.42429 | 38 ft | 11 kts | 338° |
| 2026-05-05 13:15 | 30.24304 | 120.42361 | 38 ft | 11 kts | 251° |
| 2026-05-05 13:15 | 30.24267 | 120.42274 | 38 ft | 13 kts | 242° |
| 2026-05-05 13:16 | 30.24224 | 120.42174 | 38 ft | 14 kts | 245° |
| 2026-05-05 13:16 | 30.24174 | 120.42066 | 38 ft | 15 kts | 242° |
| 2026-05-05 13:16 | 30.24124 | 120.41950 | 38 ft | 16 kts | 243° |
| 2026-05-05 13:16 | 30.24067 | 120.41821 | 38 ft | 18 kts | 243° |
| 2026-05-05 13:17 | 30.24023 | 120.41721 | 40 ft | 18 kts | 243° |
| 2026-05-05 13:17 | 30.23964 | 120.41591 | 41 ft | 18 kts | 243° |
| 2026-05-05 13:17 | 30.23905 | 120.41457 | 41 ft | 19 kts | 242° |
| 2026-05-05 13:17 | 30.23842 | 120.41318 | 41 ft | 19 kts | 243° |
| 2026-05-05 13:18 | 30.23786 | 120.41187 | 41 ft | 17 kts | 243° |
| 2026-05-05 13:18 | 30.23732 | 120.41067 | 41 ft | 15 kts | 242° |
| 2026-05-05 13:18 | 30.23690 | 120.40964 | 41 ft | 12 kts | 261° |
| 2026-05-05 13:18 | 30.23744 | 120.40891 | 41 ft | 13 kts | 333° |
| 2026-05-05 13:19 | 30.23832 | 120.40875 | 41 ft | 13 kts | 26° |
| 2026-05-05 13:19 | 30.23880 | 120.40964 | 41 ft | 15 kts | 63° |
| 2026-05-05 13:19 | 30.23992 | 120.41217 | 41 ft | 68 kts | 63° |
| 2026-05-05 13:19 | 30.24322 | 120.41959 | 38 ft | 135 kts | 63° |
| 2026-05-05 13:20 | 30.24822 | 120.43087 | 215 ft | 170 kts | 62° |
| 2026-05-05 13:20 | 30.25380 | 120.44266 | 921 ft | 168 kts | 64° |
| 2026-05-05 13:20 | 30.25919 | 120.45470 | 1648 ft | 168 kts | 67° |
| 2026-05-05 13:20 | 30.26443 | 120.46691 | 2179 ft | 177 kts | 67° |
| 2026-05-05 13:21 | 30.27014 | 120.48026 | 2598 ft | 194 kts | 66° |
| 2026-05-05 13:21 | 30.27645 | 120.49486 | 2954 ft | 217 kts | 66° |
| 2026-05-05 13:21 | 30.28356 | 120.51105 | 3561 ft | 229 kts | 65° |
| 2026-05-05 13:21 | 30.29074 | 120.52730 | 4352 ft | 232 kts | 65° |
| 2026-05-05 13:22 | 30.29806 | 120.54385 | 5211 ft | 234 kts | 64° |
| 2026-05-05 13:22 | 30.30544 | 120.56052 | 6009 ft | 237 kts | 64° |
| 2026-05-05 13:22 | 30.31288 | 120.57736 | 6866 ft | 239 kts | 63° |
| 2026-05-05 13:22 | 30.32048 | 120.59451 | 7480 ft | 243 kts | 62° |
| 2026-05-05 13:23 | 30.33085 | 120.61000 | 7828 ft | 246 kts | 36° |
| 2026-05-05 13:23 | 30.34630 | 120.61801 | 7893 ft | 246 kts | 8° |
| 2026-05-05 13:23 | 30.36329 | 120.61677 | 7893 ft | 245 kts | 340° |
| 2026-05-05 13:23 | 30.37796 | 120.60687 | 7905 ft | 244 kts | 314° |
| 2026-05-05 13:24 | 30.38720 | 120.59074 | 7901 ft | 243 kts | 288° |
| 2026-05-05 13:24 | 30.38936 | 120.57140 | 7889 ft | 243 kts | 262° |
| 2026-05-05 13:24 | 30.38461 | 120.55278 | 7878 ft | 243 kts | 244° |
| 2026-05-05 13:24 | 30.37681 | 120.53539 | 7858 ft | 243 kts | 240° |
| 2026-05-05 13:25 | 30.36859 | 120.51826 | 7859 ft | 243 kts | 240° |
| 2026-05-05 13:25 | 30.36054 | 120.50114 | 7892 ft | 243 kts | 241° |
| 2026-05-05 13:25 | 30.35266 | 120.48392 | 7882 ft | 243 kts | 242° |
| 2026-05-05 13:25 | 30.34484 | 120.46654 | 7907 ft | 247 kts | 242° |
| 2026-05-05 13:26 | 30.33656 | 120.44793 | 7906 ft | 272 kts | 242° |
| 2026-05-05 13:26 | 30.32781 | 120.42819 | 7889 ft | 280 kts | 242° |
| 2026-05-05 13:26 | 30.31890 | 120.40807 | 7891 ft | 281 kts | 242° |
| 2026-05-05 13:26 | 30.30996 | 120.38786 | 7892 ft | 281 kts | 242° |
| 2026-05-05 13:27 | 30.30099 | 120.36764 | 7892 ft | 282 kts | 242° |
| 2026-05-05 13:27 | 30.29216 | 120.34772 | 7892 ft | 282 kts | 242° |
| 2026-05-05 13:27 | 30.28319 | 120.32752 | 7892 ft | 282 kts | 242° |
| 2026-05-05 13:27 | 30.27427 | 120.30743 | 7893 ft | 282 kts | 242° |
| 2026-05-05 13:28 | 30.26524 | 120.28710 | 7922 ft | 282 kts | 242° |
| 2026-05-05 13:28 | 30.25626 | 120.26690 | 7929 ft | 282 kts | 243° |
| 2026-05-05 13:28 | 30.24721 | 120.24654 | 8075 ft | 289 kts | 243° |
| 2026-05-05 13:28 | 30.23801 | 120.22588 | 8854 ft | 291 kts | 243° |
| 2026-05-05 13:29 | 30.22877 | 120.20517 | 9500 ft | 291 kts | 243° |
| 2026-05-05 13:29 | 30.21952 | 120.18438 | 9808 ft | 291 kts | 243° |
| 2026-05-05 13:29 | 30.21034 | 120.16373 | 9855 ft | 291 kts | 243° |
| 2026-05-05 13:29 | 30.20110 | 120.14298 | 9878 ft | 292 kts | 243° |
| 2026-05-05 13:30 | 30.19166 | 120.12185 | 10271 ft | 300 kts | 243° |
| 2026-05-05 13:30 | 30.18181 | 120.09982 | 10762 ft | 317 kts | 243° |
| 2026-05-05 13:30 | 30.17140 | 120.07657 | 11170 ft | 335 kts | 243° |
| 2026-05-05 13:30 | 30.16056 | 120.05237 | 11542 ft | 353 kts | 243° |
| 2026-05-05 13:31 | 30.14890 | 120.02635 | 11934 ft | 368 kts | 243° |
| 2026-05-05 13:31 | 30.13717 | 120.00023 | 12574 ft | 375 kts | 244° |
| 2026-05-05 13:31 | 30.12513 | 119.97341 | 13248 ft | 378 kts | 244° |
| 2026-05-05 13:31 | 30.11294 | 119.94629 | 13655 ft | 380 kts | 244° |
| 2026-05-05 13:32 | 30.10077 | 119.91923 | 13782 ft | 380 kts | 244° |
| 2026-05-05 13:32 | 30.08863 | 119.89220 | 13776 ft | 379 kts | 244° |
| 2026-05-05 13:32 | 30.07644 | 119.86512 | 13781 ft | 379 kts | 244° |
| 2026-05-05 13:32 | 30.06430 | 119.83820 | 13786 ft | 378 kts | 244° |
| 2026-05-05 13:33 | 30.05215 | 119.81126 | 13792 ft | 378 kts | 243° |
| 2026-05-05 13:33 | 30.03797 | 119.78582 | 13783 ft | 380 kts | 231° |
| 2026-05-05 13:33 | 30.01863 | 119.76482 | 13836 ft | 385 kts | 217° |
| 2026-05-05 13:33 | 29.99539 | 119.74903 | 14339 ft | 392 kts | 209° |
| 2026-05-05 13:34 | 29.97127 | 119.73458 | 15135 ft | 393 kts | 209° |
| 2026-05-05 13:34 | 29.94697 | 119.72012 | 15817 ft | 395 kts | 209° |
| 2026-05-05 13:34 | 29.92238 | 119.70539 | 16455 ft | 399 kts | 209° |
| 2026-05-05 13:34 | 29.89773 | 119.69054 | 17077 ft | 402 kts | 210° |
| 2026-05-05 13:35 | 29.87303 | 119.67555 | 17696 ft | 405 kts | 211° |
| 2026-05-05 13:35 | 29.84837 | 119.65905 | 18300 ft | 408 kts | 214° |
| 2026-05-05 13:35 | 29.82474 | 119.64113 | 18872 ft | 411 kts | 216° |
| 2026-05-05 13:35 | 29.80095 | 119.62251 | 19424 ft | 415 kts | 217° |
| 2026-05-05 13:36 | 29.77709 | 119.60381 | 19969 ft | 419 kts | 217° |
| 2026-05-05 13:36 | 29.75296 | 119.58489 | 20506 ft | 422 kts | 217° |
| 2026-05-05 13:36 | 29.72863 | 119.56584 | 21024 ft | 426 kts | 217° |
| 2026-05-05 13:36 | 29.70380 | 119.54645 | 21547 ft | 430 kts | 217° |
| 2026-05-05 13:37 | 29.67902 | 119.52711 | 22037 ft | 433 kts | 217° |
| 2026-05-05 13:37 | 29.65436 | 119.50723 | 22517 ft | 436 kts | 220° |
| 2026-05-05 13:37 | 29.63087 | 119.48527 | 22994 ft | 437 kts | 224° |
| 2026-05-05 13:37 | 29.60884 | 119.46107 | 23473 ft | 438 kts | 229° |
| 2026-05-05 13:38 | 29.58813 | 119.43522 | 23934 ft | 439 kts | 231° |
| 2026-05-05 13:38 | 29.56777 | 119.40913 | 24409 ft | 441 kts | 231° |
| 2026-05-05 13:38 | 29.54736 | 119.38295 | 24832 ft | 444 kts | 231° |
| 2026-05-05 13:38 | 29.52654 | 119.35634 | 25265 ft | 446 kts | 231° |
| 2026-05-05 13:39 | 29.50589 | 119.33000 | 25702 ft | 447 kts | 231° |
| 2026-05-05 13:39 | 29.48497 | 119.30338 | 26085 ft | 450 kts | 231° |
| 2026-05-05 13:39 | 29.46417 | 119.27693 | 26456 ft | 452 kts | 231° |
| 2026-05-05 13:39 | 29.44316 | 119.25022 | 26837 ft | 453 kts | 231° |
| 2026-05-05 13:40 | 29.42184 | 119.22314 | 27177 ft | 455 kts | 231° |
| 2026-05-05 13:40 | 29.40059 | 119.19615 | 27483 ft | 458 kts | 231° |
| 2026-05-05 13:40 | 29.37931 | 119.16916 | 27771 ft | 460 kts | 231° |
| 2026-05-05 13:40 | 29.35791 | 119.14205 | 28138 ft | 460 kts | 231° |
| 2026-05-05 13:41 | 29.33638 | 119.11484 | 28595 ft | 458 kts | 231° |
| 2026-05-05 13:41 | 29.31534 | 119.08828 | 29049 ft | 455 kts | 231° |
| 2026-05-05 13:41 | 29.29392 | 119.06124 | 29464 ft | 454 kts | 231° |
| 2026-05-05 13:41 | 29.27286 | 119.03467 | 29843 ft | 453 kts | 231° |
| 2026-05-05 13:42 | 29.25168 | 119.00799 | 30205 ft | 451 kts | 231° |
| 2026-05-05 13:42 | 29.23052 | 118.98134 | 30584 ft | 450 kts | 231° |
| 2026-05-05 13:42 | 29.20976 | 118.95525 | 30962 ft | 447 kts | 231° |
| 2026-05-05 13:42 | 29.18887 | 118.92902 | 31326 ft | 445 kts | 231° |
| 2026-05-05 13:43 | 29.16800 | 118.90282 | 31676 ft | 444 kts | 231° |
| 2026-05-05 13:43 | 29.14728 | 118.87684 | 31987 ft | 443 kts | 231° |
| 2026-05-05 13:43 | 29.12655 | 118.85083 | 32276 ft | 442 kts | 231° |
| 2026-05-05 13:43 | 29.10591 | 118.82494 | 32566 ft | 442 kts | 232° |
| 2026-05-05 13:44 | 29.08517 | 118.79897 | 32807 ft | 442 kts | 232° |
| 2026-05-05 13:44 | 29.06442 | 118.77299 | 33004 ft | 443 kts | 232° |
| 2026-05-05 13:44 | 29.04362 | 118.74694 | 33227 ft | 443 kts | 232° |
| 2026-05-05 13:44 | 29.02301 | 118.72116 | 33469 ft | 443 kts | 232° |
| 2026-05-05 13:45 | 29.00227 | 118.69526 | 33683 ft | 443 kts | 232° |
| 2026-05-05 13:45 | 28.98149 | 118.66932 | 33888 ft | 443 kts | 232° |
| 2026-05-05 13:45 | 28.96077 | 118.64346 | 34048 ft | 445 kts | 232° |
| 2026-05-05 13:45 | 28.93965 | 118.61711 | 34093 ft | 446 kts | 232° |
| 2026-05-05 13:46 | 28.89780 | 118.56497 | 34098 ft | 447 kts | 232° |
| 2026-05-05 13:46 | 28.85577 | 118.51268 | 34099 ft | 447 kts | 232° |
| 2026-05-05 13:47 | 28.81389 | 118.46063 | 34098 ft | 447 kts | 232° |
| 2026-05-05 13:47 | 28.77189 | 118.40852 | 34105 ft | 447 kts | 232° |
| 2026-05-05 13:48 | 28.72965 | 118.35616 | 34102 ft | 447 kts | 232° |
| 2026-05-05 13:48 | 28.68781 | 118.30438 | 34108 ft | 446 kts | 232° |
| 2026-05-05 13:49 | 28.64586 | 118.25249 | 34102 ft | 447 kts | 232° |
| 2026-05-05 13:49 | 28.60362 | 118.20032 | 34110 ft | 447 kts | 232° |
| 2026-05-05 13:50 | 28.56172 | 118.14865 | 34125 ft | 446 kts | 232° |
| 2026-05-05 13:50 | 28.51960 | 118.09677 | 34116 ft | 447 kts | 232° |
| 2026-05-05 13:51 | 28.47721 | 118.04460 | 34125 ft | 448 kts | 232° |
| 2026-05-05 13:51 | 28.43492 | 117.99266 | 34118 ft | 448 kts | 232° |
| 2026-05-05 13:52 | 28.39228 | 117.94101 | 34112 ft | 449 kts | 231° |
| 2026-05-05 13:52 | 28.34891 | 117.88996 | 34121 ft | 449 kts | 231° |
| 2026-05-05 13:53 | 28.30579 | 117.83923 | 34115 ft | 449 kts | 231° |
| 2026-05-05 13:53 | 28.26245 | 117.78818 | 34110 ft | 449 kts | 231° |
| 2026-05-05 13:54 | 28.21896 | 117.73699 | 34114 ft | 449 kts | 231° |
| 2026-05-05 13:54 | 28.17581 | 117.68623 | 34119 ft | 449 kts | 232° |
| 2026-05-05 13:55 | 28.13239 | 117.63523 | 34111 ft | 448 kts | 231° |
| 2026-05-05 13:55 | 28.08937 | 117.58476 | 34120 ft | 447 kts | 231° |
| 2026-05-05 13:56 | 28.04598 | 117.53394 | 34132 ft | 448 kts | 232° |
| 2026-05-05 13:56 | 28.00274 | 117.48333 | 34120 ft | 448 kts | 232° |
| 2026-05-05 13:57 | 27.95942 | 117.43269 | 34127 ft | 449 kts | 232° |
| 2026-05-05 13:57 | 27.91595 | 117.38191 | 34142 ft | 449 kts | 232° |
| 2026-05-05 13:58 | 27.87268 | 117.33144 | 34144 ft | 450 kts | 231° |
| 2026-05-05 13:58 | 27.82924 | 117.28085 | 34150 ft | 448 kts | 231° |
| 2026-05-05 13:59 | 27.76410 | 117.20509 | 34150 ft | 448 kts | 232° |
| 2026-05-05 14:00 | 27.70642 | 117.13808 | 34140 ft | 449 kts | 232° |
| 2026-05-05 14:00 | 27.65570 | 117.07927 | 34132 ft | 448 kts | 232° |
| 2026-05-05 14:01 | 27.61223 | 117.02893 | 34138 ft | 448 kts | 232° |
| 2026-05-05 14:01 | 27.56860 | 116.97847 | 34147 ft | 448 kts | 232° |
| 2026-05-05 14:02 | 27.52505 | 116.92815 | 34142 ft | 448 kts | 232° |
| 2026-05-05 14:02 | 27.48191 | 116.87787 | 34135 ft | 448 kts | 232° |
| 2026-05-05 14:03 | 27.43889 | 116.82748 | 34128 ft | 448 kts | 233° |
| 2026-05-05 14:03 | 27.39578 | 116.77702 | 34124 ft | 446 kts | 233° |
| 2026-05-05 14:04 | 27.35275 | 116.72678 | 34120 ft | 446 kts | 233° |
| 2026-05-05 14:04 | 27.30987 | 116.67677 | 34120 ft | 445 kts | 233° |
| 2026-05-05 14:05 | 27.26691 | 116.62672 | 34117 ft | 445 kts | 233° |
| 2026-05-05 14:05 | 27.22373 | 116.57648 | 34116 ft | 446 kts | 233° |
| 2026-05-05 14:06 | 27.18138 | 116.52635 | 34114 ft | 445 kts | 234° |
| 2026-05-05 14:06 | 27.13936 | 116.47521 | 34114 ft | 444 kts | 234° |
| 2026-05-05 14:07 | 27.09743 | 116.42433 | 34122 ft | 443 kts | 234° |
| 2026-05-05 14:07 | 27.05557 | 116.37369 | 34126 ft | 444 kts | 234° |
| 2026-05-05 14:08 | 27.01378 | 116.32323 | 34129 ft | 444 kts | 234° |
| 2026-05-05 14:08 | 26.97182 | 116.27261 | 34131 ft | 444 kts | 234° |
| 2026-05-05 14:09 | 26.92966 | 116.22183 | 34134 ft | 444 kts | 234° |
| 2026-05-05 14:09 | 26.88766 | 116.17093 | 34131 ft | 444 kts | 234° |
| 2026-05-05 14:10 | 26.84619 | 116.12039 | 34133 ft | 444 kts | 234° |
| 2026-05-05 14:10 | 26.80435 | 116.06948 | 34134 ft | 445 kts | 234° |
| 2026-05-05 14:11 | 26.76258 | 116.01873 | 34128 ft | 443 kts | 234° |
| 2026-05-05 14:11 | 26.72070 | 115.96792 | 34127 ft | 444 kts | 234° |
| 2026-05-05 14:12 | 26.67864 | 115.91693 | 34123 ft | 445 kts | 234° |
| 2026-05-05 14:12 | 26.63681 | 115.86629 | 34125 ft | 444 kts | 234° |
| 2026-05-05 14:13 | 26.59479 | 115.81551 | 34128 ft | 444 kts | 234° |
| 2026-05-05 14:13 | 26.55289 | 115.76492 | 34125 ft | 444 kts | 234° |
| 2026-05-05 14:14 | 26.51107 | 115.71446 | 34128 ft | 444 kts | 234° |
| 2026-05-05 14:14 | 26.46901 | 115.66376 | 34115 ft | 445 kts | 234° |
| 2026-05-05 14:15 | 26.42698 | 115.61319 | 34120 ft | 445 kts | 234° |
| 2026-05-05 14:15 | 26.38495 | 115.56266 | 34120 ft | 444 kts | 235° |
| 2026-05-05 14:16 | 26.34304 | 115.51237 | 34126 ft | 443 kts | 235° |
| 2026-05-05 14:16 | 26.30118 | 115.46217 | 34125 ft | 445 kts | 235° |
| 2026-05-05 14:17 | 26.25890 | 115.41150 | 34118 ft | 445 kts | 235° |
| 2026-05-05 14:17 | 26.21697 | 115.36132 | 34111 ft | 444 kts | 235° |
| 2026-05-05 14:18 | 26.17474 | 115.31084 | 34105 ft | 445 kts | 234° |
| 2026-05-05 14:18 | 26.13276 | 115.26073 | 34102 ft | 444 kts | 234° |
| 2026-05-05 14:19 | 26.09060 | 115.21047 | 34102 ft | 444 kts | 234° |
| 2026-05-05 14:19 | 26.04833 | 115.16009 | 34102 ft | 443 kts | 234° |
| 2026-05-05 14:20 | 26.00653 | 115.11037 | 34104 ft | 442 kts | 234° |
| 2026-05-05 14:20 | 25.96448 | 115.06035 | 34109 ft | 443 kts | 234° |
| 2026-05-05 14:21 | 25.92239 | 115.01035 | 34117 ft | 443 kts | 234° |
| 2026-05-05 14:21 | 25.88028 | 114.96043 | 34119 ft | 444 kts | 234° |
| 2026-05-05 14:22 | 25.83348 | 114.91451 | 34123 ft | 456 kts | 224° |
| 2026-05-05 14:22 | 25.77861 | 114.87789 | 34121 ft | 468 kts | 213° |
| 2026-05-05 14:23 | 25.71668 | 114.85243 | 34121 ft | 480 kts | 202° |
| 2026-05-05 14:23 | 25.65113 | 114.83562 | 34120 ft | 483 kts | 200° |
| 2026-05-05 14:24 | 25.58565 | 114.81967 | 34119 ft | 481 kts | 200° |
| 2026-05-05 14:24 | 25.52039 | 114.80362 | 34119 ft | 481 kts | 200° |
| 2026-05-05 14:25 | 25.45489 | 114.78743 | 34118 ft | 481 kts | 200° |
| 2026-05-05 14:25 | 25.38916 | 114.77118 | 34121 ft | 481 kts | 200° |
| 2026-05-05 14:26 | 25.32386 | 114.75504 | 34120 ft | 480 kts | 200° |
| 2026-05-05 14:26 | 25.25876 | 114.73895 | 34120 ft | 479 kts | 200° |
| 2026-05-05 14:27 | 25.19399 | 114.72299 | 34121 ft | 478 kts | 200° |
| 2026-05-05 14:27 | 25.12868 | 114.70689 | 34129 ft | 480 kts | 200° |
| 2026-05-05 14:28 | 25.06358 | 114.69086 | 34134 ft | 480 kts | 200° |
| 2026-05-05 14:28 | 24.99826 | 114.67481 | 34141 ft | 479 kts | 200° |
| 2026-05-05 14:29 | 24.93316 | 114.65884 | 34141 ft | 478 kts | 200° |
| 2026-05-05 14:29 | 24.86805 | 114.64287 | 34136 ft | 477 kts | 200° |
| 2026-05-05 14:30 | 24.80329 | 114.62695 | 34137 ft | 478 kts | 200° |
| 2026-05-05 14:30 | 24.73919 | 114.60877 | 34136 ft | 473 kts | 205° |
| 2026-05-05 14:31 | 24.67781 | 114.58343 | 34136 ft | 466 kts | 212° |
| 2026-05-05 14:31 | 24.62031 | 114.55135 | 34139 ft | 460 kts | 218° |
| 2026-05-05 14:32 | 24.56485 | 114.51623 | 34143 ft | 460 kts | 218° |
| 2026-05-05 14:32 | 24.50951 | 114.48122 | 34152 ft | 460 kts | 218° |
| 2026-05-05 14:33 | 24.45405 | 114.44624 | 34154 ft | 459 kts | 218° |
| 2026-05-05 14:33 | 24.39851 | 114.41129 | 34149 ft | 460 kts | 218° |
| 2026-05-05 14:34 | 24.34322 | 114.37660 | 34151 ft | 459 kts | 218° |
| 2026-05-05 14:34 | 24.28755 | 114.34174 | 34150 ft | 459 kts | 217° |
| 2026-05-05 14:35 | 24.23210 | 114.30703 | 34151 ft | 460 kts | 217° |
| 2026-05-05 14:35 | 24.17638 | 114.27217 | 34159 ft | 460 kts | 217° |
| 2026-05-05 14:36 | 24.12105 | 114.23759 | 34160 ft | 460 kts | 217° |
| 2026-05-05 14:36 | 24.06528 | 114.20279 | 34157 ft | 461 kts | 217° |
| 2026-05-05 14:37 | 24.00964 | 114.16808 | 34160 ft | 461 kts | 217° |
| 2026-05-05 14:37 | 23.95386 | 114.13333 | 34161 ft | 460 kts | 217° |
| 2026-05-05 14:38 | 23.89831 | 114.09874 | 34159 ft | 461 kts | 217° |
| 2026-05-05 14:38 | 23.84258 | 114.06406 | 34155 ft | 460 kts | 217° |
| 2026-05-05 14:39 | 23.78703 | 114.02953 | 34153 ft | 461 kts | 217° |
| 2026-05-05 14:39 | 23.73087 | 113.99464 | 34145 ft | 461 kts | 217° |
| 2026-05-05 14:40 | 23.67530 | 113.96018 | 34139 ft | 460 kts | 217° |
| 2026-05-05 14:40 | 23.61965 | 113.92568 | 34127 ft | 462 kts | 217° |
| 2026-05-05 14:41 | 23.56368 | 113.89117 | 34126 ft | 463 kts | 216° |
| 2026-05-05 14:41 | 23.50517 | 113.86068 | 34121 ft | 470 kts | 210° |
| 2026-05-05 14:42 | 23.44290 | 113.83692 | 34110 ft | 476 kts | 203° |
| 2026-05-05 14:42 | 23.37913 | 113.81765 | 34115 ft | 476 kts | 202° |
| 2026-05-05 14:43 | 23.31500 | 113.79842 | 34110 ft | 476 kts | 202° |
| 2026-05-05 14:43 | 23.25130 | 113.77925 | 34106 ft | 476 kts | 202° |
| 2026-05-05 14:44 | 23.18745 | 113.76007 | 34104 ft | 475 kts | 202° |
| 2026-05-05 14:44 | 23.12347 | 113.74084 | 34099 ft | 476 kts | 202° |
| 2026-05-05 14:45 | 23.05978 | 113.72169 | 34098 ft | 475 kts | 202° |
| 2026-05-05 14:45 | 22.99583 | 113.70252 | 34096 ft | 475 kts | 202° |
| 2026-05-05 14:46 | 22.93208 | 113.68343 | 34098 ft | 475 kts | 202° |
| 2026-05-05 14:46 | 22.86839 | 113.66431 | 34097 ft | 475 kts | 202° |
| 2026-05-05 14:47 | 22.80504 | 113.64498 | 34097 ft | 475 kts | 202° |
| 2026-05-05 14:47 | 22.74096 | 113.62540 | 34097 ft | 476 kts | 202° |
| 2026-05-05 14:48 | 22.67707 | 113.60594 | 34097 ft | 476 kts | 202° |
| 2026-05-05 14:48 | 22.61357 | 113.58663 | 34093 ft | 476 kts | 202° |
| 2026-05-05 14:49 | 22.54955 | 113.56718 | 34094 ft | 476 kts | 202° |
| 2026-05-05 14:49 | 22.48549 | 113.54761 | 34093 ft | 476 kts | 202° |
| 2026-05-05 14:50 | 22.42183 | 113.52804 | 34091 ft | 477 kts | 202° |
| 2026-05-05 14:50 | 22.35820 | 113.50853 | 34092 ft | 477 kts | 202° |
| 2026-05-05 14:51 | 22.29544 | 113.48574 | 34090 ft | 468 kts | 212° |
| 2026-05-05 14:51 | 22.24217 | 113.44798 | 34093 ft | 454 kts | 228° |
| 2026-05-05 14:52 | 22.20133 | 113.39760 | 34096 ft | 442 kts | 242° |
| 2026-05-05 14:52 | 22.17406 | 113.33897 | 34102 ft | 435 kts | 252° |
| 2026-05-05 14:53 | 22.15171 | 113.27831 | 34098 ft | 435 kts | 253° |
| 2026-05-05 14:53 | 22.12842 | 113.21811 | 34097 ft | 437 kts | 251° |
| 2026-05-05 14:54 | 22.10369 | 113.15854 | 34093 ft | 438 kts | 251° |
| 2026-05-05 14:54 | 22.07882 | 113.09878 | 34089 ft | 437 kts | 250° |
| 2026-05-05 14:55 | 22.05385 | 113.03882 | 34086 ft | 438 kts | 251° |
| 2026-05-05 14:55 | 22.02922 | 112.97907 | 34083 ft | 437 kts | 252° |
| 2026-05-05 14:56 | 22.00585 | 112.91866 | 34084 ft | 437 kts | 252° |
| 2026-05-05 14:56 | 21.98243 | 112.85823 | 34087 ft | 437 kts | 252° |
| 2026-05-05 14:57 | 21.95884 | 112.79816 | 34093 ft | 438 kts | 251° |
| 2026-05-05 14:57 | 21.93453 | 112.73797 | 34102 ft | 439 kts | 251° |
| 2026-05-05 14:58 | 21.91015 | 112.67769 | 34102 ft | 438 kts | 251° |
| 2026-05-05 14:58 | 21.88594 | 112.61782 | 34103 ft | 439 kts | 251° |
| 2026-05-05 14:59 | 21.86150 | 112.55735 | 34103 ft | 440 kts | 251° |
| 2026-05-05 14:59 | 21.83743 | 112.49706 | 34103 ft | 440 kts | 251° |
| 2026-05-05 15:00 | 21.81747 | 112.44668 | 34100 ft | 440 kts | 251° |
| 2026-05-05 15:00 | 21.78943 | 112.37596 | 34101 ft | 442 kts | 251° |
| 2026-05-05 15:01 | 21.76538 | 112.31551 | 34098 ft | 442 kts | 251° |
| 2026-05-05 15:01 | 21.74120 | 112.25479 | 34099 ft | 441 kts | 251° |
| 2026-05-05 15:02 | 21.71713 | 112.19440 | 34096 ft | 441 kts | 251° |
| 2026-05-05 15:02 | 21.69307 | 112.13408 | 34103 ft | 441 kts | 251° |
| 2026-05-05 15:03 | 21.66881 | 112.07337 | 34099 ft | 441 kts | 251° |
| 2026-05-05 15:03 | 21.64473 | 112.01321 | 34100 ft | 440 kts | 251° |
| 2026-05-05 15:04 | 21.62061 | 111.95298 | 34097 ft | 441 kts | 250° |
| 2026-05-05 15:04 | 21.59585 | 111.89262 | 34091 ft | 442 kts | 248° |
| 2026-05-05 15:05 | 21.54947 | 111.80666 | 34087 ft | 447 kts | 240° |
| 2026-05-05 15:06 | 21.51149 | 111.75347 | 34087 ft | 451 kts | 234° |
| 2026-05-05 15:06 | 21.47109 | 111.70253 | 34086 ft | 451 kts | 234° |
| 2026-05-05 15:07 | 21.43045 | 111.65143 | 34083 ft | 450 kts | 234° |
| 2026-05-05 15:07 | 21.38979 | 111.60035 | 34086 ft | 450 kts | 234° |
| 2026-05-05 15:08 | 21.34922 | 111.54940 | 34084 ft | 451 kts | 234° |
| 2026-05-05 15:08 | 21.30838 | 111.49817 | 34069 ft | 452 kts | 234° |
| 2026-05-05 15:09 | 21.26750 | 111.44695 | 34063 ft | 453 kts | 234° |
| 2026-05-05 15:09 | 21.24691 | 111.42118 | 33902 ft | 453 kts | 234° |
| 2026-05-05 15:09 | 21.22663 | 111.39580 | 33626 ft | 451 kts | 234° |
| 2026-05-05 15:09 | 21.20624 | 111.37031 | 33348 ft | 448 kts | 234° |
| 2026-05-05 15:10 | 21.18595 | 111.34493 | 33071 ft | 446 kts | 234° |
| 2026-05-05 15:10 | 21.16581 | 111.31977 | 32796 ft | 444 kts | 234° |
| 2026-05-05 15:10 | 21.14584 | 111.29481 | 32532 ft | 444 kts | 234° |
| 2026-05-05 15:10 | 21.12574 | 111.26968 | 32275 ft | 444 kts | 234° |
| 2026-05-05 15:11 | 21.10562 | 111.24455 | 32018 ft | 445 kts | 233° |
| 2026-05-05 15:11 | 21.09214 | 111.22772 | 31845 ft | 445 kts | 233° |
| 2026-05-05 15:11 | 21.06539 | 111.19434 | 31505 ft | 446 kts | 233° |
| 2026-05-05 15:11 | 21.04504 | 111.16898 | 31244 ft | 448 kts | 233° |
| 2026-05-05 15:12 | 21.02490 | 111.14385 | 30987 ft | 449 kts | 233° |
| 2026-05-05 15:12 | 21.00457 | 111.11853 | 30732 ft | 450 kts | 233° |
| 2026-05-05 15:12 | 20.98417 | 111.09314 | 30473 ft | 450 kts | 233° |
| 2026-05-05 15:12 | 20.96367 | 111.06764 | 30217 ft | 451 kts | 233° |
| 2026-05-05 15:13 | 20.94324 | 111.04219 | 29959 ft | 451 kts | 233° |
| 2026-05-05 15:13 | 20.92285 | 111.01667 | 29708 ft | 451 kts | 233° |
| 2026-05-05 15:13 | 20.90254 | 110.99120 | 29456 ft | 451 kts | 233° |
| 2026-05-05 15:13 | 20.88219 | 110.96571 | 29201 ft | 452 kts | 233° |
| 2026-05-05 15:14 | 20.86192 | 110.94031 | 28947 ft | 452 kts | 233° |
| 2026-05-05 15:14 | 20.84807 | 110.92298 | 28779 ft | 453 kts | 233° |
| 2026-05-05 15:14 | 20.82088 | 110.88895 | 28450 ft | 453 kts | 233° |
| 2026-05-05 15:14 | 20.80061 | 110.86360 | 28213 ft | 454 kts | 233° |
| 2026-05-05 15:15 | 20.78000 | 110.83784 | 27968 ft | 455 kts | 233° |
| 2026-05-05 15:15 | 20.75939 | 110.81210 | 27724 ft | 455 kts | 233° |
| 2026-05-05 15:15 | 20.73879 | 110.78638 | 27482 ft | 454 kts | 233° |
| 2026-05-05 15:15 | 20.71851 | 110.76107 | 27243 ft | 453 kts | 233° |
| 2026-05-05 15:16 | 20.69809 | 110.73560 | 27004 ft | 452 kts | 233° |
| 2026-05-05 15:16 | 20.67768 | 110.71014 | 26758 ft | 450 kts | 233° |
| 2026-05-05 15:16 | 20.65730 | 110.68472 | 26515 ft | 449 kts | 233° |
| 2026-05-05 15:16 | 20.63699 | 110.65942 | 26274 ft | 448 kts | 233° |
| 2026-05-05 15:17 | 20.61669 | 110.63413 | 26032 ft | 447 kts | 233° |
| 2026-05-05 15:17 | 20.59660 | 110.60912 | 25790 ft | 445 kts | 233° |
| 2026-05-05 15:17 | 20.57660 | 110.58421 | 25549 ft | 443 kts | 232° |
| 2026-05-05 15:17 | 20.55652 | 110.55925 | 25306 ft | 441 kts | 232° |
| 2026-05-05 15:18 | 20.53650 | 110.53436 | 25064 ft | 439 kts | 232° |
| 2026-05-05 15:18 | 20.51581 | 110.51072 | 24822 ft | 440 kts | 228° |
| 2026-05-05 15:18 | 20.49298 | 110.48856 | 24578 ft | 440 kts | 223° |
| 2026-05-05 15:18 | 20.46898 | 110.46882 | 24340 ft | 440 kts | 219° |
| 2026-05-05 15:19 | 20.44361 | 110.44997 | 24095 ft | 439 kts | 218° |
| 2026-05-05 15:19 | 20.41870 | 110.43173 | 23854 ft | 438 kts | 218° |
| 2026-05-05 15:19 | 20.39342 | 110.41326 | 23612 ft | 436 kts | 218° |
| 2026-05-05 15:19 | 20.36853 | 110.39507 | 23375 ft | 435 kts | 218° |
| 2026-05-05 15:20 | 20.34358 | 110.37683 | 23137 ft | 434 kts | 218° |
| 2026-05-05 15:20 | 20.31873 | 110.35866 | 22901 ft | 432 kts | 218° |
| 2026-05-05 15:20 | 20.29405 | 110.34061 | 22665 ft | 430 kts | 218° |
| 2026-05-05 15:20 | 20.26932 | 110.32251 | 22545 ft | 429 kts | 218° |
| 2026-05-05 15:21 | 20.24479 | 110.30456 | 22537 ft | 429 kts | 218° |
| 2026-05-05 15:21 | 20.22002 | 110.28645 | 22535 ft | 429 kts | 218° |
| 2026-05-05 15:21 | 20.19546 | 110.26849 | 22536 ft | 429 kts | 217° |
| 2026-05-05 15:21 | 20.17076 | 110.25045 | 22534 ft | 429 kts | 217° |
| 2026-05-05 15:22 | 20.14624 | 110.23254 | 22535 ft | 429 kts | 217° |
| 2026-05-05 15:22 | 20.12147 | 110.21446 | 22536 ft | 429 kts | 217° |
| 2026-05-05 15:22 | 20.09681 | 110.19647 | 22538 ft | 429 kts | 217° |
| 2026-05-05 15:22 | 20.07219 | 110.17851 | 22538 ft | 430 kts | 217° |
| 2026-05-05 15:23 | 20.04740 | 110.16051 | 22539 ft | 430 kts | 217° |
| 2026-05-05 15:23 | 20.02218 | 110.14373 | 22537 ft | 431 kts | 213° |
| 2026-05-05 15:23 | 19.99583 | 110.12826 | 22535 ft | 433 kts | 210° |
| 2026-05-05 15:23 | 19.96849 | 110.11427 | 22540 ft | 435 kts | 208° |
| 2026-05-05 15:24 | 19.94112 | 110.10100 | 22537 ft | 435 kts | 207° |
| 2026-05-05 15:24 | 19.91336 | 110.08760 | 22537 ft | 435 kts | 207° |
| 2026-05-05 15:24 | 19.88560 | 110.07421 | 22538 ft | 434 kts | 207° |
| 2026-05-05 15:24 | 19.85809 | 110.06094 | 22539 ft | 434 kts | 207° |
| 2026-05-05 15:25 | 19.83062 | 110.04770 | 22541 ft | 434 kts | 207° |
| 2026-05-05 15:25 | 19.80317 | 110.03447 | 22542 ft | 434 kts | 207° |
| 2026-05-05 15:25 | 19.77573 | 110.02123 | 22543 ft | 434 kts | 207° |
| 2026-05-05 15:25 | 19.74811 | 110.00791 | 22542 ft | 435 kts | 207° |
| 2026-05-05 15:26 | 19.72044 | 109.99458 | 22545 ft | 435 kts | 207° |
| 2026-05-05 15:26 | 19.69264 | 109.98119 | 22547 ft | 435 kts | 207° |
| 2026-05-05 15:26 | 19.66510 | 109.96793 | 22548 ft | 435 kts | 207° |
| 2026-05-05 15:26 | 19.63769 | 109.95473 | 22548 ft | 436 kts | 207° |
| 2026-05-05 15:27 | 19.60996 | 109.94138 | 22547 ft | 436 kts | 207° |
| 2026-05-05 15:27 | 19.58215 | 109.92800 | 22552 ft | 436 kts | 207° |
| 2026-05-05 15:27 | 19.55433 | 109.91464 | 22552 ft | 436 kts | 207° |
| 2026-05-05 15:27 | 19.52692 | 109.90144 | 22554 ft | 437 kts | 207° |
| 2026-05-05 15:28 | 19.49921 | 109.88812 | 22553 ft | 437 kts | 207° |
| 2026-05-05 15:28 | 19.47132 | 109.87472 | 22557 ft | 436 kts | 207° |
| 2026-05-05 15:28 | 19.44379 | 109.86152 | 22551 ft | 428 kts | 207° |
| 2026-05-05 15:28 | 19.41693 | 109.84962 | 22544 ft | 411 kts | 199° |
| 2026-05-05 15:29 | 19.38918 | 109.84663 | 22537 ft | 399 kts | 176° |
| 2026-05-05 15:29 | 19.36315 | 109.85543 | 22544 ft | 387 kts | 151° |
| 2026-05-05 15:29 | 19.34357 | 109.87402 | 22546 ft | 375 kts | 125° |
| 2026-05-05 15:29 | 19.33365 | 109.89868 | 22548 ft | 359 kts | 98° |
| 2026-05-05 15:30 | 19.33327 | 109.92445 | 22565 ft | 342 kts | 87° |
| 2026-05-05 15:30 | 19.33242 | 109.94869 | 22558 ft | 327 kts | 98° |
| 2026-05-05 15:30 | 19.32763 | 109.97214 | 22566 ft | 322 kts | 106° |
| 2026-05-05 15:30 | 19.32072 | 109.99477 | 22568 ft | 322 kts | 110° |
| 2026-05-05 15:31 | 19.31304 | 110.01688 | 22563 ft | 321 kts | 111° |
| 2026-05-05 15:31 | 19.30519 | 110.03883 | 22376 ft | 318 kts | 111° |
| 2026-05-05 15:31 | 19.29737 | 110.06065 | 22018 ft | 317 kts | 111° |
| 2026-05-05 15:31 | 19.28958 | 110.08246 | 21679 ft | 316 kts | 110° |
| 2026-05-05 15:32 | 19.28193 | 110.10400 | 21373 ft | 313 kts | 110° |
| 2026-05-05 15:32 | 19.27429 | 110.12553 | 21060 ft | 311 kts | 110° |
| 2026-05-05 15:32 | 19.26682 | 110.14664 | 20753 ft | 309 kts | 111° |
| 2026-05-05 15:32 | 19.25926 | 110.16793 | 20440 ft | 306 kts | 111° |
| 2026-05-05 15:33 | 19.25185 | 110.18877 | 20139 ft | 304 kts | 110° |
| 2026-05-05 15:33 | 19.24450 | 110.20948 | 19837 ft | 301 kts | 110° |
| 2026-05-05 15:33 | 19.23916 | 110.23082 | 19491 ft | 299 kts | 89° |
| 2026-05-05 15:33 | 19.24375 | 110.25171 | 19139 ft | 292 kts | 56° |
| 2026-05-05 15:34 | 19.25626 | 110.26811 | 18887 ft | 293 kts | 36° |
| 2026-05-05 15:34 | 19.27466 | 110.27844 | 18644 ft | 306 kts | 11° |
| 2026-05-05 15:34 | 19.29568 | 110.27968 | 18399 ft | 300 kts | 347° |
| 2026-05-05 15:34 | 19.31502 | 110.27235 | 18175 ft | 290 kts | 332° |
| 2026-05-05 15:35 | 19.33271 | 110.26220 | 17943 ft | 286 kts | 328° |
| 2026-05-05 15:35 | 19.34974 | 110.25172 | 17713 ft | 285 kts | 328° |
| 2026-05-05 15:35 | 19.36699 | 110.24094 | 17476 ft | 285 kts | 328° |
| 2026-05-05 15:35 | 19.38380 | 110.23037 | 17251 ft | 284 kts | 328° |
| 2026-05-05 15:36 | 19.40095 | 110.21957 | 16843 ft | 286 kts | 328° |
| 2026-05-05 15:36 | 19.41815 | 110.20874 | 16382 ft | 288 kts | 328° |
| 2026-05-05 15:36 | 19.43587 | 110.19758 | 15926 ft | 309 kts | 328° |
| 2026-05-05 15:36 | 19.45537 | 110.18524 | 15468 ft | 343 kts | 328° |
| 2026-05-05 15:37 | 19.47676 | 110.17170 | 15004 ft | 373 kts | 328° |
| 2026-05-05 15:37 | 19.49915 | 110.15754 | 14539 ft | 380 kts | 328° |
| 2026-05-05 15:37 | 19.52187 | 110.14318 | 14064 ft | 378 kts | 328° |
| 2026-05-05 15:37 | 19.54435 | 110.12894 | 13487 ft | 375 kts | 328° |
| 2026-05-05 15:38 | 19.56606 | 110.11360 | 12851 ft | 372 kts | 317° |
| 2026-05-05 15:38 | 19.58222 | 110.09260 | 12231 ft | 368 kts | 298° |
| 2026-05-05 15:38 | 19.59047 | 110.06723 | 11645 ft | 364 kts | 278° |
| 2026-05-05 15:38 | 19.58989 | 110.04104 | 11052 ft | 363 kts | 259° |
| 2026-05-05 15:39 | 19.58048 | 110.01617 | 10577 ft | 357 kts | 241° |
| 2026-05-05 15:39 | 19.56775 | 109.99421 | 10365 ft | 344 kts | 238° |
| 2026-05-05 15:39 | 19.55492 | 109.97325 | 10155 ft | 332 kts | 238° |
| 2026-05-05 15:39 | 19.54267 | 109.95340 | 9956 ft | 320 kts | 238° |
| 2026-05-05 15:40 | 19.53057 | 109.93381 | 9762 ft | 309 kts | 238° |
| 2026-05-05 15:40 | 19.51909 | 109.91525 | 9580 ft | 298 kts | 238° |
| 2026-05-05 15:40 | 19.50784 | 109.89710 | 9400 ft | 288 kts | 238° |
| 2026-05-05 15:40 | 19.49701 | 109.87964 | 9226 ft | 278 kts | 238° |
| 2026-05-05 15:41 | 19.48655 | 109.86276 | 9058 ft | 269 kts | 238° |
| 2026-05-05 15:41 | 19.47657 | 109.84662 | 8896 ft | 260 kts | 238° |
| 2026-05-05 15:41 | 19.46679 | 109.83079 | 8735 ft | 251 kts | 238° |
| 2026-05-05 15:41 | 19.45739 | 109.81554 | 8577 ft | 243 kts | 238° |
| 2026-05-05 15:42 | 19.44776 | 109.80109 | 8409 ft | 236 kts | 226° |
| 2026-05-05 15:42 | 19.43353 | 109.79309 | 8115 ft | 236 kts | 187° |
| 2026-05-05 15:42 | 19.41739 | 109.79534 | 7825 ft | 236 kts | 157° |
| 2026-05-05 15:42 | 19.40403 | 109.80537 | 7521 ft | 237 kts | 130° |
| 2026-05-05 15:43 | 19.39615 | 109.82054 | 7237 ft | 236 kts | 112° |
| 2026-05-05 15:43 | 19.39034 | 109.83661 | 6963 ft | 234 kts | 112° |
| 2026-05-05 15:43 | 19.38445 | 109.85264 | 6688 ft | 233 kts | 112° |
| 2026-05-05 15:43 | 19.37850 | 109.86848 | 6419 ft | 231 kts | 113° |
| 2026-05-05 15:44 | 19.37249 | 109.88424 | 6143 ft | 230 kts | 113° |
| 2026-05-05 15:44 | 19.36650 | 109.89977 | 5867 ft | 229 kts | 113° |
| 2026-05-05 15:44 | 19.36041 | 109.91544 | 5588 ft | 227 kts | 113° |
| 2026-05-05 15:44 | 19.35444 | 109.93076 | 5316 ft | 226 kts | 113° |
| 2026-05-05 15:45 | 19.34842 | 109.94617 | 5050 ft | 224 kts | 113° |
| 2026-05-05 15:45 | 19.34248 | 109.96138 | 4791 ft | 223 kts | 113° |
| 2026-05-05 15:45 | 19.33656 | 109.97649 | 4529 ft | 221 kts | 113° |
| 2026-05-05 15:45 | 19.33076 | 109.99130 | 4273 ft | 219 kts | 113° |
| 2026-05-05 15:46 | 19.32493 | 110.00619 | 4009 ft | 218 kts | 113° |
| 2026-05-05 15:46 | 19.31913 | 110.02098 | 3744 ft | 216 kts | 113° |
| 2026-05-05 15:46 | 19.31339 | 110.03565 | 3484 ft | 215 kts | 113° |
| 2026-05-05 15:46 | 19.30768 | 110.05019 | 3225 ft | 213 kts | 113° |
| 2026-05-05 15:47 | 19.30198 | 110.06473 | 2960 ft | 212 kts | 113° |
| 2026-05-05 15:47 | 19.29828 | 110.07417 | 2786 ft | 212 kts | 113° |
| 2026-05-05 15:47 | 19.29071 | 110.09347 | 2427 ft | 211 kts | 113° |
| 2026-05-05 15:47 | 19.28521 | 110.10751 | 2274 ft | 204 kts | 113° |
| 2026-05-05 15:48 | 19.27994 | 110.12096 | 2257 ft | 190 kts | 112° |
| 2026-05-05 15:48 | 19.27503 | 110.13347 | 2257 ft | 184 kts | 112° |
| 2026-05-05 15:48 | 19.27011 | 110.14602 | 2266 ft | 184 kts | 112° |
| 2026-05-05 15:48 | 19.26524 | 110.15840 | 2351 ft | 184 kts | 112° |
| 2026-05-05 15:49 | 19.26031 | 110.17096 | 2304 ft | 184 kts | 112° |
| 2026-05-05 15:49 | 19.25538 | 110.18349 | 2283 ft | 185 kts | 112° |
| 2026-05-05 15:49 | 19.25042 | 110.19611 | 2273 ft | 185 kts | 112° |
| 2026-05-05 15:49 | 19.24545 | 110.20878 | 2269 ft | 185 kts | 112° |
| 2026-05-05 15:50 | 19.24128 | 110.22154 | 2257 ft | 185 kts | 98° |
| 2026-05-05 15:50 | 19.24327 | 110.23489 | 2273 ft | 180 kts | 68° |
| 2026-05-05 15:50 | 19.24900 | 110.24591 | 2271 ft | 168 kts | 61° |
| 2026-05-05 15:50 | 19.25507 | 110.25652 | 2261 ft | 167 kts | 61° |
| 2026-05-05 15:51 | 19.26105 | 110.26702 | 2258 ft | 166 kts | 61° |
| 2026-05-05 15:51 | 19.26695 | 110.27758 | 2256 ft | 166 kts | 61° |
| 2026-05-05 15:51 | 19.27282 | 110.28822 | 2258 ft | 166 kts | 61° |
| 2026-05-05 15:51 | 19.27860 | 110.29877 | 2258 ft | 166 kts | 61° |
| 2026-05-05 15:52 | 19.28442 | 110.30942 | 2249 ft | 166 kts | 62° |
| 2026-05-05 15:52 | 19.29015 | 110.31992 | 2251 ft | 166 kts | 62° |
| 2026-05-05 15:52 | 19.29597 | 110.33059 | 2249 ft | 166 kts | 62° |
| 2026-05-05 15:52 | 19.30061 | 110.34167 | 2237 ft | 164 kts | 81° |
| 2026-05-05 15:53 | 19.29919 | 110.35331 | 2238 ft | 162 kts | 114° |
| 2026-05-05 15:53 | 19.29200 | 110.36239 | 2241 ft | 163 kts | 143° |
| 2026-05-05 15:53 | 19.28223 | 110.36857 | 2250 ft | 163 kts | 149° |
| 2026-05-05 15:53 | 19.27213 | 110.37444 | 2247 ft | 164 kts | 150° |
| 2026-05-05 15:54 | 19.26223 | 110.38021 | 2246 ft | 164 kts | 150° |
| 2026-05-05 15:54 | 19.25228 | 110.38608 | 2238 ft | 157 kts | 149° |
| 2026-05-05 15:54 | 19.24346 | 110.39130 | 2192 ft | 135 kts | 149° |
| 2026-05-05 15:54 | 19.23507 | 110.39610 | 1855 ft | 139 kts | 149° |
| 2026-05-05 15:55 | 19.22684 | 110.40111 | 1569 ft | 131 kts | 148° |
| 2026-05-05 15:55 | 19.21901 | 110.40596 | 1507 ft | 133 kts | 148° |
| 2026-05-05 15:55 | 19.21095 | 110.41089 | 1334 ft | 133 kts | 148° |
| 2026-05-05 15:55 | 19.20280 | 110.41582 | 1159 ft | 134 kts | 148° |
| 2026-05-05 15:56 | 19.19477 | 110.42065 | 988 ft | 134 kts | 148° |
| 2026-05-05 15:56 | 19.18663 | 110.42554 | 812 ft | 133 kts | 148° |
| 2026-05-05 15:56 | 19.17857 | 110.43039 | 641 ft | 134 kts | 148° |
| 2026-05-05 15:56 | 19.17041 | 110.43530 | 467 ft | 134 kts | 149° |
| 2026-05-05 15:57 | 19.16226 | 110.44018 | 294 ft | 133 kts | 149° |
| 2026-05-05 15:57 | 19.15423 | 110.44505 | 120 ft | 133 kts | 148° |
| 2026-05-05 15:57 | 19.14638 | 110.44992 | 57 ft | 116 kts | 148° |
| 2026-05-05 15:57 | 19.14190 | 110.45252 | 45 ft | 42 kts | 152° |
| 2026-05-05 15:58 | 19.14025 | 110.45386 | 40 ft | 21 kts | 108° |
| 2026-05-05 15:58 | 19.14062 | 110.45491 | 40 ft | 14 kts | 53° |
| 2026-05-05 15:58 | 19.14107 | 110.45570 | 41 ft | 11 kts | 60° |
| 2026-05-05 15:58 | 19.14132 | 110.45647 | 43 ft | 10 kts | 88° |
| 2026-05-05 15:59 | 19.14157 | 110.45712 | 43 ft | 6 kts | 59° |
| 2026-05-05 15:59 | 19.14159 | 110.45715 | 43 ft | 0 kts | 59° |